sensor_id;sensor_type;location;lat;lon;timestamp;pressure;altitude;pressure_sealevel;temperature;humidity
20909;BME280;10614;53.198;6.570;2023-01-31T00:01:42;102170.88;;;3.86;100.00
20909;BME280;10614;53.198;6.570;2023-01-31T00:03:44;102174.38;;;3.85;100.00
20909;BME280;10614;53.198;6.570;2023-01-31T00:05:47;102163.91;;;3.84;100.00
20909;BME280;10614;53.198;6.570;2023-01-31T00:07:49;102177.81;;;3.83;100.00
20909;BME280;10614;53.198;6.570;2023-01-31T00:09:51;102177.81;;;3.83;100.00
20909;BME280;10614;53.198;6.570;2023-01-31T00:11:53;102184.72;;;3.79;100.00
20909;BME280;10614;53.198;6.570;2023-01-31T00:13:57;102186.41;;;3.72;100.00
20909;BME280;10614;53.198;6.570;2023-01-31T00:15:59;102187.28;;;3.73;100.00
20909;BME280;10614;53.198;6.570;2023-01-31T00:18:01;102176.00;;;3.72;100.00
20909;BME280;10614;53.198;6.570;2023-01-31T00:20:03;102175.09;;;3.70;100.00
20909;BME280;10614;53.198;6.570;2023-01-31T00:22:05;102170.72;;;3.69;100.00
20909;BME280;10614;53.198;6.570;2023-01-31T00:24:07;102167.22;;;3.67;100.00
20909;BME280;10614;53.198;6.570;2023-01-31T00:26:12;102165.53;;;3.69;100.00
20909;BME280;10614;53.198;6.570;2023-01-31T00:28:14;102164.63;;;3.67;100.00
20909;BME280;10614;53.198;6.570;2023-01-31T00:30:16;102163.78;;;3.67;100.00
20909;BME280;10614;53.198;6.570;2023-01-31T00:32:18;102158.53;;;3.65;100.00
20909;BME280;10614;53.198;6.570;2023-01-31T00:34:20;102159.41;;;3.64;100.00
20909;BME280;10614;53.198;6.570;2023-01-31T00:36:23;102151.63;;;3.66;100.00
20909;BME280;10614;53.198;6.570;2023-01-31T00:38:25;102162.00;;;3.64;100.00
20909;BME280;10614;53.198;6.570;2023-01-31T00:40:26;102148.97;;;3.61;100.00
20909;BME280;10614;53.198;6.570;2023-01-31T00:42:29;102155.00;;;3.60;100.00
20909;BME280;10614;53.198;6.570;2023-01-31T00:44:31;102153.31;;;3.62;100.00
20909;BME280;10614;53.198;6.570;2023-01-31T00:46:32;102141.16;;;3.61;100.00
20909;BME280;10614;53.198;6.570;2023-01-31T00:48:34;102151.53;;;3.58;100.00
20909;BME280;10614;53.198;6.570;2023-01-31T00:50:36;102147.22;;;3.58;100.00
20909;BME280;10614;53.198;6.570;2023-01-31T00:52:38;102163.69;;;3.59;100.00
20909;BME280;10614;53.198;6.570;2023-01-31T00:54:41;102157.59;;;3.57;100.00
20909;BME280;10614;53.198;6.570;2023-01-31T00:56:43;102153.25;;;3.56;100.00
20909;BME280;10614;53.198;6.570;2023-01-31T00:58:46;102142.84;;;3.56;100.00
20909;BME280;10614;53.198;6.570;2023-01-31T01:00:48;102140.25;;;3.56;100.00
20909;BME280;10614;53.198;6.570;2023-01-31T01:02:49;102146.28;;;3.55;100.00
20909;BME280;10614;53.198;6.570;2023-01-31T01:04:51;102150.63;;;3.51;100.00
20909;BME280;10614;53.198;6.570;2023-01-31T01:06:53;102146.28;;;3.52;100.00
20909;BME280;10614;53.198;6.570;2023-01-31T01:08:55;102136.69;;;3.49;100.00
20909;BME280;10614;53.198;6.570;2023-01-31T01:11:03;102140.19;;;3.51;100.00
20909;BME280;10614;53.198;6.570;2023-01-31T01:13:05;102149.72;;;3.51;100.00
20909;BME280;10614;53.198;6.570;2023-01-31T01:15:09;102156.63;;;3.47;100.00
20909;BME280;10614;53.198;6.570;2023-01-31T01:17:10;102159.22;;;3.46;100.00
20909;BME280;10614;53.198;6.570;2023-01-31T01:19:14;102154.81;;;3.42;100.00
20909;BME280;10614;53.198;6.570;2023-01-31T01:21:19;102157.38;;;3.37;100.00
20909;BME280;10614;53.198;6.570;2023-01-31T01:23:21;102161.69;;;3.33;100.00
20909;BME280;10614;53.198;6.570;2023-01-31T01:25:23;102165.13;;;3.31;100.00
20909;BME280;10614;53.198;6.570;2023-01-31T01:27:25;102165.09;;;3.29;100.00
20909;BME280;10614;53.198;6.570;2023-01-31T01:29:27;102168.59;;;3.28;100.00
20909;BME280;10614;53.198;6.570;2023-01-31T01:31:30;102175.47;;;3.23;100.00
20909;BME280;10614;53.198;6.570;2023-01-31T01:33:32;102169.38;;;3.23;100.00
20909;BME280;10614;53.198;6.570;2023-01-31T01:35:33;102179.78;;;3.23;100.00
20909;BME280;10614;53.198;6.570;2023-01-31T01:37:35;102165.00;;;3.20;100.00
20909;BME280;10614;53.198;6.570;2023-01-31T01:39:37;102162.44;;;3.22;100.00
20909;BME280;10614;53.198;6.570;2023-01-31T01:41:39;102161.56;;;3.23;100.00
20909;BME280;10614;53.198;6.570;2023-01-31T01:43:43;102160.69;;;3.22;100.00
20909;BME280;10614;53.198;6.570;2023-01-31T01:45:44;102167.63;;;3.22;100.00
20909;BME280;10614;53.198;6.570;2023-01-31T01:47:50;102150.25;;;3.19;100.00
20909;BME280;10614;53.198;6.570;2023-01-31T01:49:56;102150.25;;;3.21;100.00
20909;BME280;10614;53.198;6.570;2023-01-31T01:52:02;102152.00;;;3.19;100.00
20909;BME280;10614;53.198;6.570;2023-01-31T01:54:07;102140.69;;;3.16;100.00
20909;BME280;10614;53.198;6.570;2023-01-31T01:56:15;102149.41;;;3.19;100.00
20909;BME280;10614;53.198;6.570;2023-01-31T01:58:22;102141.59;;;3.19;100.00
20909;BME280;10614;53.198;6.570;2023-01-31T02:00:27;102139.81;;;3.17;100.00
20909;BME280;10614;53.198;6.570;2023-01-31T02:02:29;102141.56;;;3.17;100.00
20909;BME280;10614;53.198;6.570;2023-01-31T02:04:35;102138.97;;;3.20;100.00
20909;BME280;10614;53.198;6.570;2023-01-31T02:06:38;102134.66;;;3.19;100.00
20909;BME280;10614;53.198;6.570;2023-01-31T02:08:41;102127.72;;;3.20;100.00
20909;BME280;10614;53.198;6.570;2023-01-31T02:10:46;102120.75;;;3.17;100.00
20909;BME280;10614;53.198;6.570;2023-01-31T02:12:49;102112.94;;;3.17;100.00
20909;BME280;10614;53.198;6.570;2023-01-31T02:14:51;102106.88;;;3.20;100.00
20909;BME280;10614;53.198;6.570;2023-01-31T02:16:54;102109.53;;;3.21;100.00
20909;BME280;10614;53.198;6.570;2023-01-31T02:18:56;102108.63;;;3.21;100.00
20909;BME280;10614;53.198;6.570;2023-01-31T02:21:24;102110.41;;;3.23;100.00
20909;BME280;10614;53.198;6.570;2023-01-31T02:26:33;102107.81;;;3.25;100.00
20909;BME280;10614;53.198;6.570;2023-01-31T02:31:37;102105.25;;;3.29;100.00
20909;BME280;10614;53.198;6.570;2023-01-31T02:33:48;102094.00;;;3.30;100.00
20909;BME280;10614;53.198;6.570;2023-01-31T02:36:00;102094.88;;;3.32;100.00
20909;BME280;10614;53.198;6.570;2023-01-31T02:38:11;102105.28;;;3.32;100.00
20909;BME280;10614;53.198;6.570;2023-01-31T02:40:22;102086.25;;;3.35;100.00
20909;BME280;10614;53.198;6.570;2023-01-31T02:42:34;102081.03;;;3.35;100.00
20909;BME280;10614;53.198;6.570;2023-01-31T02:44:45;102074.09;;;3.37;100.00
20909;BME280;10614;53.198;6.570;2023-01-31T02:47:05;102066.31;;;3.38;100.00
20909;BME280;10614;53.198;6.570;2023-01-31T02:49:17;102075.88;;;3.41;100.00
20909;BME280;10614;53.198;6.570;2023-01-31T02:51:36;102068.09;;;3.43;100.00
20909;BME280;10614;53.198;6.570;2023-01-31T02:53:43;102071.59;;;3.45;100.00
20909;BME280;10614;53.198;6.570;2023-01-31T02:55:48;102064.66;;;3.47;100.00
20909;BME280;10614;53.198;6.570;2023-01-31T02:58:11;102074.19;;;3.46;100.00
20909;BME280;10614;53.198;6.570;2023-01-31T03:00:14;102071.59;;;3.45;100.00
20909;BME280;10614;53.198;6.570;2023-01-31T03:02:16;102062.06;;;3.47;100.00
20909;BME280;10614;53.198;6.570;2023-01-31T03:04:19;102065.53;;;3.49;100.00
20909;BME280;10614;53.198;6.570;2023-01-31T03:06:55;102059.47;;;3.50;100.00
20909;BME280;10614;53.198;6.570;2023-01-31T03:09:03;102054.28;;;3.50;100.00
20909;BME280;10614;53.198;6.570;2023-01-31T03:11:07;102053.34;;;3.46;100.00
20909;BME280;10614;53.198;6.570;2023-01-31T03:13:22;102061.19;;;3.51;100.00
20909;BME280;10614;53.198;6.570;2023-01-31T03:15:35;102052.53;;;3.50;100.00
20909;BME280;10614;53.198;6.570;2023-01-31T03:18:09;102055.16;;;3.52;100.00
20909;BME280;10614;53.198;6.570;2023-01-31T03:20:18;102054.28;;;3.50;100.00
20909;BME280;10614;53.198;6.570;2023-01-31T03:22:25;102046.44;;;3.48;100.00
20909;BME280;10614;53.198;6.570;2023-01-31T03:24:29;102045.59;;;3.51;100.00
20909;BME280;10614;53.198;6.570;2023-01-31T03:26:32;102042.09;;;3.49;100.00
20909;BME280;10614;53.198;6.570;2023-01-31T03:28:37;102044.69;;;3.49;100.00
20909;BME280;10614;53.198;6.570;2023-01-31T03:30:45;102030.84;;;3.50;100.00
20909;BME280;10614;53.198;6.570;2023-01-31T03:32:52;102033.47;;;3.51;100.00
20909;BME280;10614;53.198;6.570;2023-01-31T03:34:56;102023.91;;;3.52;100.00
20909;BME280;10614;53.198;6.570;2023-01-31T03:37:06;102016.94;;;3.51;100.00
20909;BME280;10614;53.198;6.570;2023-01-31T03:39:13;102015.25;;;3.51;100.00
20909;BME280;10614;53.198;6.570;2023-01-31T03:41:22;102011.75;;;3.51;100.00
20909;BME280;10614;53.198;6.570;2023-01-31T03:43:27;102010.06;;;3.54;100.00
20909;BME280;10614;53.198;6.570;2023-01-31T03:45:35;102010.91;;;3.55;100.00
20909;BME280;10614;53.198;6.570;2023-01-31T03:47:40;102004.00;;;3.58;100.00
20909;BME280;10614;53.198;6.570;2023-01-31T03:49:44;102012.69;;;3.59;100.00
20909;BME280;10614;53.198;6.570;2023-01-31T03:51:52;102002.28;;;3.59;100.00
20909;BME280;10614;53.198;6.570;2023-01-31T03:53:59;101997.97;;;3.61;100.00
20909;BME280;10614;53.198;6.570;2023-01-31T03:56:05;102004.03;;;3.62;100.00
20909;BME280;10614;53.198;6.570;2023-01-31T03:58:10;101990.16;;;3.64;100.00
20909;BME280;10614;53.198;6.570;2023-01-31T04:00:15;101994.50;;;3.64;100.00
20909;BME280;10614;53.198;6.570;2023-01-31T04:02:20;101982.38;;;3.66;100.00
20909;BME280;10614;53.198;6.570;2023-01-31T04:04:26;101988.47;;;3.68;100.00
20909;BME280;10614;53.198;6.570;2023-01-31T04:06:29;101991.06;;;3.68;100.00
20909;BME280;10614;53.198;6.570;2023-01-31T04:08:31;101990.19;;;3.72;100.00
20909;BME280;10614;53.198;6.570;2023-01-31T04:10:34;101998.00;;;3.72;100.00
20909;BME280;10614;53.198;6.570;2023-01-31T04:12:36;101994.53;;;3.70;100.00
20909;BME280;10614;53.198;6.570;2023-01-31T04:14:37;101990.22;;;3.70;100.00
20909;BME280;10614;53.198;6.570;2023-01-31T04:16:39;101987.59;;;3.72;100.00
20909;BME280;10614;53.198;6.570;2023-01-31T04:18:41;101984.13;;;3.71;100.00
20909;BME280;10614;53.198;6.570;2023-01-31T04:20:42;101971.09;;;3.71;100.00
20909;BME280;10614;53.198;6.570;2023-01-31T04:22:44;101971.09;;;3.71;100.00
20909;BME280;10614;53.198;6.570;2023-01-31T04:24:45;101966.81;;;3.75;100.00
20909;BME280;10614;53.198;6.570;2023-01-31T04:26:48;101965.94;;;3.77;100.00
20909;BME280;10614;53.198;6.570;2023-01-31T04:28:50;101965.94;;;3.79;100.00
20909;BME280;10614;53.198;6.570;2023-01-31T04:30:52;101960.72;;;3.79;100.00
20909;BME280;10614;53.198;6.570;2023-01-31T04:32:54;101958.13;;;3.80;100.00
20909;BME280;10614;53.198;6.570;2023-01-31T04:34:55;101960.75;;;3.84;100.00
20909;BME280;10614;53.198;6.570;2023-01-31T04:36:57;101971.19;;;3.82;100.00
20909;BME280;10614;53.198;6.570;2023-01-31T04:38:59;101955.53;;;3.84;100.00
20909;BME280;10614;53.198;6.570;2023-01-31T04:41:01;101939.09;;;3.88;100.00
20909;BME280;10614;53.198;6.570;2023-01-31T04:43:04;101940.81;;;3.87;100.00
20909;BME280;10614;53.198;6.570;2023-01-31T04:45:07;101953.00;;;3.91;100.00
20909;BME280;10614;53.198;6.570;2023-01-31T04:47:09;101946.06;;;3.92;100.00
20909;BME280;10614;53.198;6.570;2023-01-31T04:49:10;101951.28;;;3.93;100.00
20909;BME280;10614;53.198;6.570;2023-01-31T04:51:12;101940.84;;;3.95;100.00
20909;BME280;10614;53.198;6.570;2023-01-31T04:53:14;101944.34;;;3.98;100.00
20909;BME280;10614;53.198;6.570;2023-01-31T04:55:15;101953.91;;;4.01;100.00
20909;BME280;10614;53.198;6.570;2023-01-31T04:57:17;101947.84;;;4.02;100.00
20909;BME280;10614;53.198;6.570;2023-01-31T04:59:20;101942.63;;;4.04;100.00
20909;BME280;10614;53.198;6.570;2023-01-31T05:01:22;101937.44;;;4.05;100.00
20909;BME280;10614;53.198;6.570;2023-01-31T05:03:23;101938.31;;;4.06;100.00
20909;BME280;10614;53.198;6.570;2023-01-31T05:05:25;101933.13;;;4.10;100.00
20909;BME280;10614;53.198;6.570;2023-01-31T05:07:27;101936.59;;;4.14;100.00
20909;BME280;10614;53.198;6.570;2023-01-31T05:09:28;101940.97;;;4.15;100.00
20909;BME280;10614;53.198;6.570;2023-01-31T05:11:30;101932.28;;;4.17;100.00
20909;BME280;10614;53.198;6.570;2023-01-31T05:13:32;101946.22;;;4.24;100.00
20909;BME280;10614;53.198;6.570;2023-01-31T05:15:39;101944.47;;;4.25;100.00
20909;BME280;10614;53.198;6.570;2023-01-31T05:17:41;101938.38;;;4.30;100.00
20909;BME280;10614;53.198;6.570;2023-01-31T05:19:42;101941.88;;;4.31;100.00
20909;BME280;10614;53.198;6.570;2023-01-31T05:21:47;101931.44;;;4.35;100.00
20909;BME280;10614;53.198;6.570;2023-01-31T05:23:58;101934.94;;;4.37;100.00
20909;BME280;10614;53.198;6.570;2023-01-31T05:25:59;101923.66;;;4.38;100.00
20909;BME280;10614;53.198;6.570;2023-01-31T05:28:02;101919.34;;;4.40;100.00
20909;BME280;10614;53.198;6.570;2023-01-31T05:30:04;101915.84;;;4.43;100.00
20909;BME280;10614;53.198;6.570;2023-01-31T05:32:07;101913.22;;;4.44;100.00
20909;BME280;10614;53.198;6.570;2023-01-31T05:34:10;101920.19;;;4.47;100.00
20909;BME280;10614;53.198;6.570;2023-01-31T05:36:14;101908.03;;;4.49;100.00
20909;BME280;10614;53.198;6.570;2023-01-31T05:38:15;101895.00;;;4.48;100.00
20909;BME280;10614;53.198;6.570;2023-01-31T05:40:17;101897.59;;;4.49;100.00
20909;BME280;10614;53.198;6.570;2023-01-31T05:42:19;101900.25;;;4.52;100.00
20909;BME280;10614;53.198;6.570;2023-01-31T05:44:21;101890.69;;;4.50;100.00
20909;BME280;10614;53.198;6.570;2023-01-31T05:46:23;101895.88;;;4.51;100.00
20909;BME280;10614;53.198;6.570;2023-01-31T05:48:26;101882.84;;;4.50;100.00
20909;BME280;10614;53.198;6.570;2023-01-31T05:50:27;101882.88;;;4.54;100.00
20909;BME280;10614;53.198;6.570;2023-01-31T05:52:29;101881.13;;;4.55;100.00
20909;BME280;10614;53.198;6.570;2023-01-31T05:54:31;101875.03;;;4.54;100.00
20909;BME280;10614;53.198;6.570;2023-01-31T05:56:33;101866.34;;;4.55;100.00
20909;BME280;10614;53.198;6.570;2023-01-31T05:58:35;101857.63;;;4.56;100.00
20909;BME280;10614;53.198;6.570;2023-01-31T06:00:37;101857.63;;;4.58;100.00
20909;BME280;10614;53.198;6.570;2023-01-31T06:02:38;101861.13;;;4.58;100.00
20909;BME280;10614;53.198;6.570;2023-01-31T06:04:42;101854.16;;;4.56;100.00
20909;BME280;10614;53.198;6.570;2023-01-31T06:06:43;101855.03;;;4.56;100.00
20909;BME280;10614;53.198;6.570;2023-01-31T06:08:45;101857.63;;;4.58;100.00
20909;BME280;10614;53.198;6.570;2023-01-31T06:10:47;101839.38;;;4.61;100.00
20909;BME280;10614;53.198;6.570;2023-01-31T06:12:49;101853.31;;;4.61;100.00
20909;BME280;10614;53.198;6.570;2023-01-31T06:14:50;101855.06;;;4.64;100.00
20909;BME280;10614;53.198;6.570;2023-01-31T06:16:52;101852.44;;;4.69;100.00
20909;BME280;10614;53.198;6.570;2023-01-31T06:18:54;101842.88;;;4.71;100.00
20909;BME280;10614;53.198;6.570;2023-01-31T06:20:57;101843.72;;;4.68;100.00
20909;BME280;10614;53.198;6.570;2023-01-31T06:22:59;101835.03;;;4.68;100.00
20909;BME280;10614;53.198;6.570;2023-01-31T06:25:01;101832.44;;;4.72;100.00
20909;BME280;10614;53.198;6.570;2023-01-31T06:27:04;101837.66;;;4.72;100.00
20909;BME280;10614;53.198;6.570;2023-01-31T06:29:07;101829.81;;;4.72;100.00
20909;BME280;10614;53.198;6.570;2023-01-31T06:31:09;101815.91;;;4.75;100.00
20909;BME280;10614;53.198;6.570;2023-01-31T06:33:12;101814.19;;;4.77;100.00
20909;BME280;10614;53.198;6.570;2023-01-31T06:35:14;101818.53;;;4.73;100.00
20909;BME280;10614;53.198;6.570;2023-01-31T06:37:18;101815.94;;;4.73;100.00
20909;BME280;10614;53.198;6.570;2023-01-31T06:39:19;101811.59;;;4.74;100.00
20909;BME280;10614;53.198;6.570;2023-01-31T06:41:21;101809.84;;;4.74;100.00
20909;BME280;10614;53.198;6.570;2023-01-31T06:43:23;101815.91;;;4.75;100.00
20909;BME280;10614;53.198;6.570;2023-01-31T06:45:25;101794.19;;;4.76;100.00
20909;BME280;10614;53.198;6.570;2023-01-31T06:47:26;101785.50;;;4.75;100.00
20909;BME280;10614;53.198;6.570;2023-01-31T06:49:28;101795.06;;;4.76;100.00
20909;BME280;10614;53.198;6.570;2023-01-31T06:51:29;101800.25;;;4.75;100.00
20909;BME280;10614;53.198;6.570;2023-01-31T06:53:33;101788.97;;;4.76;100.00
20909;BME280;10614;53.198;6.570;2023-01-31T06:55:34;101781.16;;;4.76;100.00
20909;BME280;10614;53.198;6.570;2023-01-31T06:57:36;101776.81;;;4.76;100.00
20909;BME280;10614;53.198;6.570;2023-01-31T06:59:37;101763.75;;;4.75;100.00
20909;BME280;10614;53.198;6.570;2023-01-31T07:01:39;101766.34;;;4.75;100.00
20909;BME280;10614;53.198;6.570;2023-01-31T07:03:41;101753.31;;;4.75;100.00
20909;BME280;10614;53.198;6.570;2023-01-31T07:05:43;101762.00;;;4.77;100.00
20909;BME280;10614;53.198;6.570;2023-01-31T07:07:45;101755.94;;;4.76;100.00
20909;BME280;10614;53.198;6.570;2023-01-31T07:09:50;101761.13;;;4.79;100.00
20909;BME280;10614;53.198;6.570;2023-01-31T07:11:53;101770.72;;;4.76;100.00
20909;BME280;10614;53.198;6.570;2023-01-31T07:13:54;101754.19;;;4.77;100.00
20909;BME280;10614;53.198;6.570;2023-01-31T07:15:56;101776.81;;;4.78;100.00
20909;BME280;10614;53.198;6.570;2023-01-31T07:17:58;101771.56;;;4.79;100.00
20909;BME280;10614;53.198;6.570;2023-01-31T07:20:00;101785.47;;;4.81;100.00
20909;BME280;10614;53.198;6.570;2023-01-31T07:22:01;101773.31;;;4.85;100.00
20909;BME280;10614;53.198;6.570;2023-01-31T07:24:04;101774.19;;;4.87;100.00
20909;BME280;10614;53.198;6.570;2023-01-31T07:26:07;101782.88;;;4.86;100.00
20909;BME280;10614;53.198;6.570;2023-01-31T07:28:08;101755.06;;;4.83;100.00
20909;BME280;10614;53.198;6.570;2023-01-31T07:30:14;101763.75;;;4.87;100.00
20909;BME280;10614;53.198;6.570;2023-01-31T07:32:16;101775.91;;;4.88;100.00
20909;BME280;10614;53.198;6.570;2023-01-31T07:34:18;101755.06;;;4.90;100.00
20909;BME280;10614;53.198;6.570;2023-01-31T07:36:22;101758.50;;;4.93;100.00
20909;BME280;10614;53.198;6.570;2023-01-31T07:38:25;101753.31;;;4.92;100.00
20909;BME280;10614;53.198;6.570;2023-01-31T07:40:27;101756.75;;;4.94;100.00
20909;BME280;10614;53.198;6.570;2023-01-31T07:42:30;101759.41;;;4.92;100.00
20909;BME280;10614;53.198;6.570;2023-01-31T07:44:32;101764.59;;;4.92;100.00
20909;BME280;10614;53.198;6.570;2023-01-31T07:46:34;101762.00;;;4.92;100.00
20909;BME280;10614;53.198;6.570;2023-01-31T07:48:37;101761.13;;;4.95;100.00
20909;BME280;10614;53.198;6.570;2023-01-31T07:50:39;101755.03;;;4.99;100.00
20909;BME280;10614;53.198;6.570;2023-01-31T07:52:41;101768.09;;;4.99;100.00
20909;BME280;10614;53.198;6.570;2023-01-31T07:54:42;101750.66;;;4.98;100.00
20909;BME280;10614;53.198;6.570;2023-01-31T07:56:44;101754.16;;;5.00;100.00
20909;BME280;10614;53.198;6.570;2023-01-31T07:58:49;101750.66;;;5.04;100.00
20909;BME280;10614;53.198;6.570;2023-01-31T08:00:52;101745.44;;;5.02;100.00
20909;BME280;10614;53.198;6.570;2023-01-31T08:03:22;101776.78;;;4.99;100.00
20909;BME280;10614;53.198;6.570;2023-01-31T08:05:33;101754.16;;;5.01;100.00
20909;BME280;10614;53.198;6.570;2023-01-31T08:07:35;101735.88;;;5.00;100.00
20909;BME280;10614;53.198;6.570;2023-01-31T08:09:37;101741.09;;;5.01;100.00
20909;BME280;10614;53.198;6.570;2023-01-31T08:11:39;101746.31;;;5.01;100.00
20909;BME280;10614;53.198;6.570;2023-01-31T08:13:41;101729.78;;;5.01;100.00
20909;BME280;10614;53.198;6.570;2023-01-31T08:15:44;101726.31;;;5.02;100.00
20909;BME280;10614;53.198;6.570;2023-01-31T08:17:46;101765.47;;;5.03;100.00
20909;BME280;10614;53.198;6.570;2023-01-31T08:19:47;101740.19;;;5.05;100.00
20909;BME280;10614;53.198;6.570;2023-01-31T08:21:49;101729.75;;;5.05;100.00
20909;BME280;10614;53.198;6.570;2023-01-31T08:23:51;101736.75;;;5.06;100.00
20909;BME280;10614;53.198;6.570;2023-01-31T08:25:58;101734.13;;;5.08;100.00
20909;BME280;10614;53.198;6.570;2023-01-31T08:28:01;101735.84;;;5.07;100.00
20909;BME280;10614;53.198;6.570;2023-01-31T08:30:04;101735.88;;;5.09;100.00
20909;BME280;10614;53.198;6.570;2023-01-31T08:32:07;101715.84;;;5.10;100.00
20909;BME280;10614;53.198;6.570;2023-01-31T08:34:10;101739.31;;;5.13;100.00
20909;BME280;10614;53.198;6.570;2023-01-31T08:36:14;101699.31;;;5.12;100.00
20909;BME280;10614;53.198;6.570;2023-01-31T08:38:17;101707.13;;;5.14;100.00
20909;BME280;10614;53.198;6.570;2023-01-31T08:40:18;101721.06;;;5.16;100.00
20909;BME280;10614;53.198;6.570;2023-01-31T08:42:20;101703.63;;;5.19;100.00
20909;BME280;10614;53.198;6.570;2023-01-31T08:44:22;101719.28;;;5.22;100.00
20909;BME280;10614;53.198;6.570;2023-01-31T08:46:26;101712.34;;;5.20;100.00
20909;BME280;10614;53.198;6.570;2023-01-31T08:48:32;101700.16;;;5.20;100.00
20909;BME280;10614;53.198;6.570;2023-01-31T08:50:34;101733.22;;;5.23;100.00
20909;BME280;10614;53.198;6.570;2023-01-31T08:52:35;101689.69;;;5.23;100.00
20909;BME280;10614;53.198;6.570;2023-01-31T08:54:37;101674.00;;;5.26;100.00
20909;BME280;10614;53.198;6.570;2023-01-31T08:56:39;101675.78;;;5.24;100.00
20909;BME280;10614;53.198;6.570;2023-01-31T08:58:42;101675.72;;;5.29;100.00
20909;BME280;10614;53.198;6.570;2023-01-31T09:00:44;101671.38;;;5.33;100.00
20909;BME280;10614;53.198;6.570;2023-01-31T09:02:50;101679.22;;;5.34;100.00
20909;BME280;10614;53.198;6.570;2023-01-31T09:04:53;101678.31;;;5.37;100.00
20909;BME280;10614;53.198;6.570;2023-01-31T09:06:55;101664.38;;;5.38;100.00
20909;BME280;10614;53.198;6.570;2023-01-31T09:08:57;101668.75;;;5.37;100.00
20909;BME280;10614;53.198;6.570;2023-01-31T09:10:59;101660.03;;;5.41;100.00
20909;BME280;10614;53.198;6.570;2023-01-31T09:13:01;101665.25;;;5.41;100.00
20909;BME280;10614;53.198;6.570;2023-01-31T09:15:03;101671.34;;;5.43;100.00
20909;BME280;10614;53.198;6.570;2023-01-31T09:17:05;101666.09;;;5.45;100.00
20909;BME280;10614;53.198;6.570;2023-01-31T09:19:09;101664.38;;;5.42;100.00
20909;BME280;10614;53.198;6.570;2023-01-31T09:21:14;101658.28;;;5.43;100.00
20909;BME280;10614;53.198;6.570;2023-01-31T09:23:15;101666.13;;;5.43;100.00
20909;BME280;10614;53.198;6.570;2023-01-31T09:25:18;101657.38;;;5.43;100.00
20909;BME280;10614;53.198;6.570;2023-01-31T09:27:20;101647.81;;;5.45;100.00
20909;BME280;10614;53.198;6.570;2023-01-31T09:29:22;101647.81;;;5.46;100.00
20909;BME280;10614;53.198;6.570;2023-01-31T09:31:24;101638.22;;;5.45;100.00
20909;BME280;10614;53.198;6.570;2023-01-31T09:33:34;101647.81;;;5.46;100.00
20909;BME280;10614;53.198;6.570;2023-01-31T09:35:36;101643.44;;;5.47;100.00
20909;BME280;10614;53.198;6.570;2023-01-31T09:37:39;101654.75;;;5.49;100.00
20909;BME280;10614;53.198;6.570;2023-01-31T09:39:42;101643.44;;;5.48;100.00
20909;BME280;10614;53.198;6.570;2023-01-31T09:41:45;101639.97;;;5.48;100.00
20909;BME280;10614;53.198;6.570;2023-01-31T09:43:54;101623.41;;;5.50;100.00
20909;BME280;10614;53.198;6.570;2023-01-31T09:46:01;101631.22;;;5.54;100.00
20909;BME280;10614;53.198;6.570;2023-01-31T09:48:06;101628.63;;;5.52;100.00
20909;BME280;10614;53.198;6.570;2023-01-31T09:50:17;101632.94;;;5.55;100.00
20909;BME280;10614;53.198;6.570;2023-01-31T09:52:20;101643.38;;;5.55;100.00
20909;BME280;10614;53.198;6.570;2023-01-31T09:54:27;101629.47;;;5.56;100.00
20909;BME280;10614;53.198;6.570;2023-01-31T09:56:37;101625.13;;;5.56;100.00
20909;BME280;10614;53.198;6.570;2023-01-31T09:58:46;101637.28;;;5.59;100.00
20909;BME280;10614;53.198;6.570;2023-01-31T10:00:55;101632.91;;;5.62;100.00
20909;BME280;10614;53.198;6.570;2023-01-31T10:03:21;101632.91;;;5.62;100.00
20909;BME280;10614;53.198;6.570;2023-01-31T10:05:30;101625.94;;;5.63;100.00
20909;BME280;10614;53.198;6.570;2023-01-31T10:07:42;101635.50;;;5.64;100.00
20909;BME280;10614;53.198;6.570;2023-01-31T10:09:53;101639.88;;;5.65;100.00
20909;BME280;10614;53.198;6.570;2023-01-31T10:11:58;101628.53;;;5.66;100.00
20909;BME280;10614;53.198;6.570;2023-01-31T10:14:10;101647.66;;;5.66;100.00
20909;BME280;10614;53.198;6.570;2023-01-31T10:16:22;101642.44;;;5.69;100.00
20909;BME280;10614;53.198;6.570;2023-01-31T10:18:29;101662.47;;;5.69;100.00
20909;BME280;10614;53.198;6.570;2023-01-31T10:20:36;101663.31;;;5.71;100.00
20909;BME280;10614;53.198;6.570;2023-01-31T10:22:44;101661.59;;;5.71;100.00
20909;BME280;10614;53.198;6.570;2023-01-31T10:24:53;101699.84;;;5.76;100.00
20909;BME280;10614;53.198;6.570;2023-01-31T10:27:02;101652.84;;;5.74;100.00
20909;BME280;10614;53.198;6.570;2023-01-31T10:29:12;101654.63;;;5.74;100.00
20909;BME280;10614;53.198;6.570;2023-01-31T10:31:25;101645.91;;;5.71;100.00
20909;BME280;10614;53.198;6.570;2023-01-31T10:33:37;101674.63;;;5.73;100.00
20909;BME280;10614;53.198;6.570;2023-01-31T10:35:42;101666.78;;;5.73;100.00
20909;BME280;10614;53.198;6.570;2023-01-31T10:37:47;101669.41;;;5.75;100.00
20909;BME280;10614;53.198;6.570;2023-01-31T10:39:53;101685.97;;;5.72;100.00
20909;BME280;10614;53.198;6.570;2023-01-31T10:42:13;101658.97;;;5.71;100.00
20909;BME280;10614;53.198;6.570;2023-01-31T10:44:21;101671.16;;;5.74;100.00
20909;BME280;10614;53.198;6.570;2023-01-31T10:46:24;101661.56;;;5.73;100.00
20909;BME280;10614;53.198;6.570;2023-01-31T10:48:28;101668.53;;;5.71;100.00
20909;BME280;10614;53.198;6.570;2023-01-31T10:50:39;101658.13;;;5.69;100.00
20909;BME280;10614;53.198;6.570;2023-01-31T10:53:02;101657.25;;;5.69;100.00
20909;BME280;10614;53.198;6.570;2023-01-31T10:55:24;101664.19;;;5.70;100.00
20909;BME280;10614;53.198;6.570;2023-01-31T10:57:30;101634.56;;;5.71;100.00